Time;durP1;ratioP1;P1;durP2;ratioP2;P2;SDS_P1;SDS_P2;PMS_P1;PMS_P2;Temp;Humidity;BMP_temperature;BMP_pressure;BME280_temperature;BME280_humidity;BME280_pressure;Samples;Min_cycle;Max_cycle;Signal;HPM_P1;HPM_P2
2023/05/16 00:01:56;;;;;;;11.05;1.42;;;8.10;99.90;;;;;;5114101;27;20401;-92
2023/05/16 00:04:22;;;;;;;13.67;1.20;;;8.10;99.90;;;;;;5111849;27;20401;-91
2023/05/16 00:06:48;;;;;;;13.43;1.37;;;8.00;99.90;;;;;;5114044;27;20469;-92
2023/05/16 00:09:13;;;;;;;13.80;1.33;;;8.10;99.90;;;;;;5113019;27;20468;-91
2023/05/16 00:11:39;;;;;;;11.52;0.95;;;8.10;99.90;;;;;;5113814;27;20389;-92
2023/05/16 00:14:05;;;;;;;11.50;1.37;;;8.40;99.90;;;;;;5113910;27;20401;-90
2023/05/16 00:16:31;;;;;;;13.97;1.50;;;8.00;99.90;;;;;;5111654;27;20420;-91
2023/05/16 00:18:58;;;;;;;12.95;1.42;;;8.10;99.90;;;;;;5114242;27;20416;-91
2023/05/16 00:21:24;;;;;;;13.57;1.57;;;8.00;99.90;;;;;;5111919;27;20472;-91
2023/05/16 00:23:51;;;;;;;12.83;1.23;;;7.90;99.90;;;;;;5113819;27;20436;-91
2023/05/16 00:26:17;;;;;;;14.23;1.20;;;7.90;99.90;;;;;;5111822;27;20401;-91
2023/05/16 00:28:43;;;;;;;11.82;0.90;;;7.90;99.90;;;;;;5113503;27;20477;-90
2023/05/16 00:31:09;;;;;;;14.90;1.37;;;7.90;99.90;;;;;;5113659;27;20455;-91
2023/05/16 00:33:34;;;;;;;14.55;1.17;;;8.00;99.90;;;;;;5112824;27;20935;-91
2023/05/16 00:36:00;;;;;;;11.97;1.10;;;8.00;99.90;;;;;;5113527;27;20476;-91
2023/05/16 00:38:26;;;;;;;13.53;1.20;;;8.20;99.90;;;;;;5111697;27;20416;-91
2023/05/16 00:40:52;;;;;;;11.63;1.13;;;8.00;99.90;;;;;;5114093;27;20409;-92
2023/05/16 00:43:17;;;;;;;10.30;1.20;;;7.90;99.90;;;;;;5111814;27;20408;-91
2023/05/16 00:45:43;;;;;;;11.33;1.10;;;7.90;99.90;;;;;;5114256;27;20440;-90
2023/05/16 00:48:10;;;;;;;12.07;1.60;;;7.80;99.90;;;;;;5112503;27;20430;-90
2023/05/16 00:50:36;;;;;;;11.20;1.20;;;7.80;99.90;;;;;;5113021;27;20898;-91
2023/05/16 00:53:03;;;;;;;13.50;1.58;;;7.80;99.90;;;;;;5113734;27;20397;-91
2023/05/16 00:55:28;;;;;;;15.65;1.35;;;7.70;99.90;;;;;;5111853;27;20405;-92
2023/05/16 00:57:56;;;;;;;12.43;1.50;;;7.90;99.90;;;;;;5116525;27;20423;-91
2023/05/16 01:00:22;;;;;;;9.82;0.85;;;7.70;99.90;;;;;;5115320;27;20755;-91
2023/05/16 01:02:52;;;;;;;16.17;2.00;;;7.70;99.90;;;;;;5117554;27;20396;-92
2023/05/16 01:05:18;;;;;;;14.18;1.25;;;7.80;99.90;;;;;;5115668;27;20454;-92
2023/05/16 01:07:44;;;;;;;12.97;1.20;;;7.60;99.90;;;;;;5117057;27;20791;-91
2023/05/16 01:10:10;;;;;;;12.03;1.30;;;7.60;99.90;;;;;;5116898;27;20894;-91
2023/05/16 01:13:06;;;;;;;12.67;1.70;;;7.60;99.90;;;;;;5115618;27;20591;-91
2023/05/16 01:15:43;;;;;;;16.75;1.50;;;7.80;99.90;;;;;;5117278;27;20396;-91
2023/05/16 01:18:43;;;;;;;12.55;1.25;;;7.50;99.90;;;;;;5115346;27;20416;-91
2023/05/16 01:21:17;;;;;;;15.75;1.60;;;7.50;99.90;;;;;;5115212;27;20418;-93
2023/05/16 01:24:06;;;;;;;11.90;1.80;;;7.50;99.90;;;;;;5116893;27;20389;-92
2023/05/16 01:26:33;;;;;;;14.55;1.80;;;7.50;99.90;;;;;;5114931;27;20397;-91
2023/05/16 01:28:59;;;;;;;14.07;1.67;;;7.50;99.90;;;;;;5116966;27;20860;-91
2023/05/16 01:31:25;;;;;;;11.88;1.40;;;7.40;99.90;;;;;;5115594;27;20432;-91
2023/05/16 01:33:51;;;;;;;11.63;1.80;;;7.40;99.90;;;;;;5115575;27;20433;-91
2023/05/16 01:36:19;;;;;;;13.20;1.67;;;7.40;99.90;;;;;;5116876;27;20400;-91
2023/05/16 01:38:49;;;;;;;11.35;1.63;;;7.30;99.90;;;;;;5114550;27;20463;-92
2023/05/16 01:41:23;;;;;;;13.88;1.50;;;7.30;99.90;;;;;;5116396;27;20421;-91
2023/05/16 01:43:53;;;;;;;12.25;1.10;;;7.30;99.90;;;;;;5114470;27;20927;-92
2023/05/16 01:46:26;;;;;;;12.55;1.40;;;7.30;99.90;;;;;;5116708;27;20895;-92
2023/05/16 01:49:04;;;;;;;12.52;1.55;;;7.70;99.90;;;;;;5115644;27;20409;-90
2023/05/16 01:51:32;;;;;;;14.57;1.80;;;7.40;99.90;;;;;;5114546;27;20396;-90
2023/05/16 01:54:04;;;;;;;15.07;1.58;;;7.40;99.90;;;;;;5116268;27;20408;-91
2023/05/16 01:56:31;;;;;;;15.60;1.90;;;7.40;99.90;;;;;;5114205;27;20435;-91
2023/05/16 01:58:58;;;;;;;13.13;1.53;;;7.40;99.90;;;;;;5116692;27;20396;-91
2023/05/16 02:01:24;;;;;;;15.82;2.08;;;7.40;99.90;;;;;;5114465;27;20497;-91
2023/05/16 02:03:50;;;;;;;10.50;1.37;;;7.40;99.90;;;;;;5115690;27;20405;-91
2023/05/16 02:06:16;;;;;;;14.65;1.80;;;7.40;99.90;;;;;;5115439;27;20438;-91
2023/05/16 02:08:41;;;;;;;12.83;1.27;;;7.40;99.90;;;;;;5113816;27;20392;-91
2023/05/16 02:11:07;;;;;;;13.05;1.63;;;7.40;99.90;;;;;;5115979;27;20957;-91
2023/05/16 02:13:33;;;;;;;13.57;1.92;;;7.40;99.90;;;;;;5113984;27;20909;-90
2023/05/16 02:15:58;;;;;;;12.30;1.20;;;7.40;99.90;;;;;;5115667;27;20699;-91
2023/05/16 02:18:24;;;;;;;15.65;2.22;;;7.40;99.90;;;;;;5114008;27;20460;-91
2023/05/16 02:20:51;;;;;;;15.45;1.58;;;7.40;99.90;;;;;;5115713;27;20381;-92
2023/05/16 02:23:16;;;;;;;11.00;1.50;;;7.40;99.90;;;;;;5114418;27;20388;-92
2023/05/16 02:25:42;;;;;;;14.03;1.43;;;7.60;99.90;;;;;;5114690;27;20405;-91
2023/05/16 02:28:08;;;;;;;16.42;1.92;;;7.40;99.90;;;;;;5115860;27;20408;-91
2023/05/16 02:30:33;;;;;;;11.45;1.60;;;7.40;99.90;;;;;;5113516;27;20402;-91
2023/05/16 02:32:59;;;;;;;12.60;1.70;;;7.50;99.90;;;;;;5115634;27;20895;-91
2023/05/16 02:35:25;;;;;;;11.65;1.92;;;7.40;99.90;;;;;;5113788;27;20753;-93
2023/05/16 02:37:50;;;;;;;11.83;1.37;;;7.40;99.90;;;;;;5115375;27;20423;-91
2023/05/16 02:40:16;;;;;;;13.13;1.70;;;7.30;99.90;;;;;;5113981;27;20389;-91
2023/05/16 02:42:41;;;;;;;12.40;1.73;;;7.30;99.90;;;;;;5115353;27;20432;-92
2023/05/16 02:45:07;;;;;;;13.33;1.40;;;7.60;99.90;;;;;;5114546;27;20408;-91
2023/05/16 02:47:33;;;;;;;11.07;1.50;;;7.20;99.90;;;;;;5114280;27;20392;-92
2023/05/16 02:49:59;;;;;;;11.40;1.40;;;7.20;99.90;;;;;;5115885;27;20393;-91
2023/05/16 02:52:25;;;;;;;13.35;1.38;;;7.20;99.90;;;;;;5113411;27;20401;-93
2023/05/16 02:54:50;;;;;;;11.13;1.48;;;7.20;99.90;;;;;;5115401;27;20409;-91
2023/05/16 02:57:16;;;;;;;12.40;1.57;;;7.10;99.90;;;;;;5113026;27;20487;-92
2023/05/16 02:59:41;;;;;;;10.75;1.45;;;7.10;99.90;;;;;;5114963;27;20409;-91
2023/05/16 03:02:07;;;;;;;8.70;1.40;;;7.10;99.90;;;;;;5113824;27;20401;-91
2023/05/16 03:04:33;;;;;;;15.17;1.70;;;7.10;99.90;;;;;;5114903;27;20397;-91
2023/05/16 03:06:59;;;;;;;12.30;1.40;;;7.10;99.90;;;;;;5114780;27;20420;-92
2023/05/16 03:09:25;;;;;;;13.93;1.50;;;7.40;99.90;;;;;;5113353;27;20453;-92
2023/05/16 03:11:50;;;;;;;11.70;1.55;;;7.20;99.90;;;;;;5114998;27;20413;-91
2023/05/16 03:14:16;;;;;;;12.47;1.30;;;7.20;99.90;;;;;;5112789;27;20400;-92
2023/05/16 03:16:42;;;;;;;12.00;1.60;;;7.10;99.90;;;;;;5114448;27;20417;-89
2023/05/16 03:19:09;;;;;;;10.82;1.00;;;7.40;99.90;;;;;;5113020;27;20751;-92
2023/05/16 03:21:34;;;;;;;13.55;1.67;;;7.10;99.90;;;;;;5113607;27;20397;-92
2023/05/16 03:24:02;;;;;;;13.77;1.83;;;7.10;99.90;;;;;;5113806;27;20409;-91
2023/05/16 03:26:28;;;;;;;11.70;1.33;;;7.10;99.90;;;;;;5113871;27;20852;-91
2023/05/16 03:28:54;;;;;;;11.27;1.47;;;7.10;99.90;;;;;;5114386;27;20559;-92
2023/05/16 03:31:19;;;;;;;10.00;1.10;;;7.00;99.90;;;;;;5112690;27;20393;-91
2023/05/16 03:33:45;;;;;;;9.10;1.40;;;7.00;99.90;;;;;;5114362;27;20910;-92
2023/05/16 03:36:11;;;;;;;14.20;1.60;;;6.90;99.90;;;;;;5112882;27;20494;-91
2023/05/16 03:38:37;;;;;;;12.13;1.30;;;6.90;99.90;;;;;;5114299;27;20496;-91
2023/05/16 03:41:02;;;;;;;12.63;2.08;;;6.90;99.90;;;;;;5113000;27;20401;-91
2023/05/16 03:43:28;;;;;;;10.48;1.27;;;6.90;99.90;;;;;;5113770;27;20405;-91
2023/05/16 03:45:54;;;;;;;8.93;1.17;;;6.90;99.90;;;;;;5114415;27;20397;-91
2023/05/16 03:48:20;;;;;;;13.10;1.25;;;6.90;99.90;;;;;;5112446;27;20409;-91
2023/05/16 03:50:46;;;;;;;11.43;1.63;;;6.90;99.90;;;;;;5114589;27;20408;-91
2023/05/16 03:53:12;;;;;;;10.52;1.38;;;6.90;99.90;;;;;;5112322;27;20895;-91
2023/05/16 03:55:38;;;;;;;11.32;1.42;;;7.00;99.90;;;;;;5114883;27;20389;-91
2023/05/16 03:58:03;;;;;;;14.00;1.70;;;6.90;99.90;;;;;;5112637;27;20416;-91
2023/05/16 04:00:29;;;;;;;12.37;1.80;;;6.90;99.90;;;;;;5113919;27;20399;-91
2023/05/16 04:02:55;;;;;;;11.80;1.52;;;6.80;99.90;;;;;;5113086;27;20534;-91
2023/05/16 04:05:21;;;;;;;12.27;1.42;;;6.80;99.90;;;;;;5112972;27;20452;-91
2023/05/16 04:07:47;;;;;;;11.45;1.35;;;6.90;99.90;;;;;;5114435;27;20423;-91
2023/05/16 04:10:13;;;;;;;11.80;1.60;;;7.00;99.90;;;;;;5112234;27;20483;-92
2023/05/16 04:12:39;;;;;;;11.52;1.52;;;7.00;99.90;;;;;;5114487;27;20748;-91
2023/05/16 04:15:06;;;;;;;10.50;1.45;;;6.80;99.90;;;;;;5112126;27;20398;-92
2023/05/16 04:17:32;;;;;;;9.32;1.20;;;6.80;99.90;;;;;;5113956;27;20425;-92
2023/05/16 04:19:58;;;;;;;10.98;1.25;;;6.80;99.90;;;;;;5112487;27;20385;-91
2023/05/16 04:22:24;;;;;;;15.13;1.63;;;6.80;99.90;;;;;;5113637;27;20496;-91
2023/05/16 04:24:50;;;;;;;12.07;1.63;;;6.90;99.90;;;;;;5113486;27;20488;-91
2023/05/16 04:27:16;;;;;;;9.98;1.80;;;6.90;99.90;;;;;;5112537;27;20408;-92
2023/05/16 04:29:42;;;;;;;11.13;1.52;;;6.90;99.90;;;;;;5114542;27;20894;-91
2023/05/16 04:32:08;;;;;;;11.25;1.25;;;7.00;99.90;;;;;;5113738;27;20397;-92
2023/05/16 04:34:36;;;;;;;11.75;1.27;;;7.00;99.90;;;;;;5118035;27;20400;-91
2023/05/16 04:37:04;;;;;;;11.87;1.33;;;7.10;99.90;;;;;;5115637;27;20448;-91
2023/05/16 04:39:30;;;;;;;8.02;0.80;;;7.20;99.90;;;;;;5118112;27;20763;-91
2023/05/16 04:41:58;;;;;;;10.43;1.25;;;7.20;99.90;;;;;;5117211;27;20396;-91
2023/05/16 04:44:25;;;;;;;9.45;0.82;;;7.40;99.90;;;;;;5116530;27;20405;-92
2023/05/16 04:46:52;;;;;;;10.20;1.20;;;7.40;99.90;;;;;;5117542;27;20400;-92
2023/05/16 04:49:18;;;;;;;9.63;0.93;;;7.60;99.90;;;;;;5115559;27;20457;-91
2023/05/16 04:51:43;;;;;;;13.80;1.05;;;7.60;99.90;;;;;;5117706;27;20466;-92
2023/05/16 04:54:09;;;;;;;10.47;0.90;;;7.80;99.90;;;;;;5115949;27;20470;-92
2023/05/16 04:56:35;;;;;;;9.43;0.90;;;7.90;99.90;;;;;;5117713;27;20421;-91
2023/05/16 04:59:03;;;;;;;10.23;1.17;;;8.10;99.90;;;;;;5116179;27;20429;-92
2023/05/16 05:01:29;;;;;;;10.90;1.10;;;8.20;99.90;;;;;;5116647;27;20415;-92
2023/05/16 05:03:55;;;;;;;8.65;1.00;;;8.30;99.90;;;;;;5117083;27;20401;-92
2023/05/16 05:06:20;;;;;;;10.90;1.05;;;8.40;99.90;;;;;;5115627;27;21061;-92
2023/05/16 05:08:46;;;;;;;10.32;1.17;;;8.50;99.90;;;;;;5117752;27;20408;-92
2023/05/16 05:11:12;;;;;;;11.57;0.93;;;8.80;99.90;;;;;;5114817;27;20393;-91
2023/05/16 05:13:38;;;;;;;11.80;1.00;;;8.70;99.90;;;;;;5117507;27;20760;-92
2023/05/16 05:16:04;;;;;;;7.77;1.00;;;8.80;99.90;;;;;;5115400;27;20886;-92
2023/05/16 05:18:30;;;;;;;11.02;0.90;;;8.90;99.90;;;;;;5116763;27;20782;-92
2023/05/16 05:20:56;;;;;;;8.55;0.90;;;9.00;99.90;;;;;;5116047;27;20533;-92
2023/05/16 05:23:22;;;;;;;8.10;1.15;;;9.20;99.90;;;;;;5116008;27;20802;-91
2023/05/16 05:25:48;;;;;;;8.60;0.88;;;9.70;99.90;;;;;;5116793;27;20408;-91
2023/05/16 05:28:14;;;;;;;9.73;1.00;;;9.50;99.90;;;;;;5115066;27;20397;-91
2023/05/16 05:30:40;;;;;;;12.50;1.10;;;9.70;99.90;;;;;;5116867;27;20401;-92
2023/05/16 05:33:05;;;;;;;8.90;0.90;;;9.90;99.90;;;;;;5114432;27;20890;-90
2023/05/16 05:35:31;;;;;;;11.35;0.80;;;10.00;99.90;;;;;;5116999;27;20393;-91
2023/05/16 05:37:56;;;;;;;12.43;0.90;;;10.10;99.90;;;;;;5115441;27;20448;-91
2023/05/16 05:40:22;;;;;;;9.73;0.80;;;10.10;99.90;;;;;;5116216;27;20496;-93
2023/05/16 05:42:48;;;;;;;9.25;0.70;;;10.00;99.90;;;;;;5115395;27;20819;-92
2023/05/16 05:45:14;;;;;;;9.00;0.70;;;10.00;99.90;;;;;;5114620;27;20397;-91
2023/05/16 05:47:41;;;;;;;9.65;1.00;;;9.90;99.90;;;;;;5116630;27;20445;-92
2023/05/16 05:50:07;;;;;;;8.32;0.65;;;9.90;99.90;;;;;;5114476;27;20412;-92
2023/05/16 05:52:33;;;;;;;8.30;0.90;;;9.90;99.90;;;;;;5116519;27;20454;-92
2023/05/16 05:54:58;;;;;;;7.73;0.70;;;9.80;99.90;;;;;;5114606;27;20393;-91
2023/05/16 05:57:24;;;;;;;7.25;0.80;;;9.70;99.90;;;;;;5115934;27;20820;-90
2023/05/16 05:59:50;;;;;;;7.43;0.60;;;9.50;99.90;;;;;;5115554;27;20397;-91
2023/05/16 06:02:16;;;;;;;7.57;0.75;;;9.30;99.90;;;;;;5115540;27;20403;-91
2023/05/16 06:04:42;;;;;;;5.57;0.40;;;9.20;99.90;;;;;;5116066;27;20389;-92
2023/05/16 06:07:07;;;;;;;6.50;0.43;;;9.30;99.90;;;;;;5113863;27;20393;-91
2023/05/16 06:09:33;;;;;;;6.63;0.50;;;9.50;99.90;;;;;;5116512;27;20480;-91
2023/05/16 06:11:59;;;;;;;5.63;0.60;;;9.70;99.90;;;;;;5114119;27;20521;-92
2023/05/16 06:14:24;;;;;;;8.10;0.47;;;9.90;99.90;;;;;;5116739;27;20427;-92
2023/05/16 06:16:50;;;;;;;6.88;0.90;;;10.10;99.90;;;;;;5114326;27;20423;-93
2023/05/16 06:19:17;;;;;;;5.72;0.60;;;10.30;99.90;;;;;;5115156;27;20407;-92
2023/05/16 06:21:44;;;;;;;4.90;0.50;;;10.60;99.90;;;;;;5115673;27;20389;-92
2023/05/16 06:24:11;;;;;;;6.35;0.43;;;10.70;99.90;;;;;;5113854;27;20907;-91
2023/05/16 06:26:36;;;;;;;7.05;0.40;;;10.90;99.90;;;;;;5115961;27;20398;-92
2023/05/16 06:29:02;;;;;;;5.97;0.52;;;11.00;99.90;;;;;;5113659;27;20844;-92
2023/05/16 06:31:27;;;;;;;6.10;0.50;;;11.10;99.90;;;;;;5115662;27;20389;-92
2023/05/16 06:33:53;;;;;;;5.97;0.50;;;11.10;99.90;;;;;;5113336;27;20405;-92
2023/05/16 06:36:19;;;;;;;8.38;0.70;;;11.30;99.90;;;;;;5115561;27;20389;-92
2023/05/16 06:38:45;;;;;;;6.37;0.40;;;11.30;99.90;;;;;;5114571;27;20920;-92
2023/05/16 06:41:10;;;;;;;5.93;0.40;;;11.70;99.90;;;;;;5114382;27;20423;-92
2023/05/16 06:43:36;;;;;;;5.57;0.50;;;11.40;99.90;;;;;;5115415;27;20405;-92
2023/05/16 06:46:02;;;;;;;8.15;0.60;;;11.60;99.90;;;;;;5113254;27;20396;-92
2023/05/16 06:48:28;;;;;;;6.90;0.73;;;11.50;99.90;;;;;;5115491;27;20437;-92
2023/05/16 06:50:54;;;;;;;7.50;0.40;;;11.70;99.90;;;;;;5113230;27;20883;-92
2023/05/16 06:53:20;;;;;;;6.22;0.65;;;11.80;99.90;;;;;;5115358;27;20412;-92
2023/05/16 06:55:46;;;;;;;8.43;0.53;;;11.80;99.90;;;;;;5113734;27;20408;-92
2023/05/16 06:58:12;;;;;;;6.22;0.73;;;11.80;99.90;;;;;;5114838;27;20597;-92
2023/05/16 07:00:37;;;;;;;7.27;0.63;;;11.70;99.90;;;;;;5114822;27;20512;-91
2023/05/16 07:03:03;;;;;;;7.97;0.93;;;11.60;99.90;;;;;;5113691;27;20475;-91
2023/05/16 07:05:29;;;;;;;9.75;0.70;;;11.50;99.90;;;;;;5115110;27;20488;-92
2023/05/16 07:07:55;;;;;;;5.97;0.60;;;11.30;99.90;;;;;;5112582;27;20412;-91
2023/05/16 07:10:21;;;;;;;8.00;0.50;;;11.00;99.90;;;;;;5114959;27;20486;-90
2023/05/16 07:12:47;;;;;;;7.70;0.60;;;11.10;99.90;;;;;;5112981;27;20484;-92
2023/05/16 07:15:13;;;;;;;5.65;0.60;;;11.20;99.90;;;;;;5114869;27;20417;-91
2023/05/16 07:17:38;;;;;;;10.15;0.73;;;12.00;99.90;;;;;;5113647;27;20448;-90
2023/05/16 07:20:06;;;;;;;8.27;0.70;;;12.20;99.90;;;;;;5113766;27;20385;-91
2023/05/16 07:22:31;;;;;;;7.75;0.80;;;12.00;99.90;;;;;;5114780;27;20444;-91
2023/05/16 07:24:59;;;;;;;7.25;0.73;;;11.90;99.90;;;;;;5112762;27;20429;-92
2023/05/16 07:27:26;;;;;;;8.30;0.80;;;11.30;99.90;;;;;;5114627;27;20508;-92
2023/05/16 07:29:52;;;;;;;9.20;1.00;;;11.20;99.90;;;;;;5112471;27;20453;-90
2023/05/16 07:32:18;;;;;;;8.48;0.95;;;11.50;99.90;;;;;;5114878;27;20453;-91
2023/05/16 07:34:43;;;;;;;8.07;0.70;;;11.80;99.90;;;;;;5112839;27;20405;-92
2023/05/16 07:37:11;;;;;;;8.27;0.63;;;12.10;99.90;;;;;;5114279;27;20959;-91
2023/05/16 07:39:40;;;;;;;5.30;0.60;;;12.10;99.90;;;;;;5114224;27;20412;-91
2023/05/16 07:42:07;;;;;;;6.43;0.57;;;12.00;99.90;;;;;;5112657;27;20392;-92
2023/05/16 07:44:33;;;;;;;4.55;0.47;;;11.80;99.90;;;;;;5114446;27;20528;-92
2023/05/16 07:46:59;;;;;;;5.03;0.47;;;11.70;99.90;;;;;;5112465;27;20498;-91
2023/05/16 07:49:25;;;;;;;6.60;0.55;;;11.60;99.90;;;;;;5114508;27;20401;-92
2023/05/16 07:51:50;;;;;;;5.47;0.67;;;11.70;99.90;;;;;;5112273;27;20469;-91
2023/05/16 07:54:16;;;;;;;7.65;0.70;;;11.90;99.90;;;;;;5114147;27;20405;-92
2023/05/16 07:56:42;;;;;;;6.07;0.50;;;12.10;99.90;;;;;;5113069;27;20791;-92
2023/05/16 07:59:08;;;;;;;6.50;0.70;;;12.30;99.90;;;;;;5113110;27;20777;-89
2023/05/16 08:01:34;;;;;;;6.95;0.50;;;12.60;99.90;;;;;;5114082;27;20401;-90
2023/05/16 08:03:59;;;;;;;8.73;0.70;;;12.80;99.90;;;;;;5111976;27;20408;-91
2023/05/16 08:06:25;;;;;;;7.93;0.65;;;13.20;99.90;;;;;;5115194;27;20755;-91
2023/05/16 08:08:50;;;;;;;8.73;0.70;;;13.20;99.90;;;;;;5116157;27;20440;-91
2023/05/16 08:11:18;;;;;;;7.68;0.75;;;13.00;99.90;;;;;;5118600;27;20488;-92
2023/05/16 08:13:43;;;;;;;9.27;1.10;;;12.70;99.90;;;;;;5116641;27;20522;-92
2023/05/16 08:16:10;;;;;;;7.53;0.75;;;12.50;99.90;;;;;;5117709;27;20491;-91
2023/05/16 08:18:36;;;;;;;7.35;0.63;;;12.40;99.90;;;;;;5118245;27;20416;-90
2023/05/16 08:21:01;;;;;;;9.20;0.93;;;12.30;99.90;;;;;;5116815;27;20407;-92
2023/05/16 08:23:27;;;;;;;6.57;0.73;;;12.10;99.90;;;;;;5118349;27;20413;-91
2023/05/16 08:25:53;;;;;;;8.52;0.65;;;11.90;99.90;;;;;;5116199;27;20393;-92
2023/05/16 08:28:19;;;;;;;7.50;0.80;;;12.10;99.90;;;;;;5118085;27;20397;-91
2023/05/16 08:30:44;;;;;;;8.27;0.65;;;12.60;99.90;;;;;;5115996;27;20396;-90
2023/05/16 08:33:10;;;;;;;8.63;0.70;;;13.00;99.90;;;;;;5117762;27;20436;-91
2023/05/16 08:35:36;;;;;;;6.90;0.60;;;13.00;99.90;;;;;;5117164;27;20484;-91
2023/05/16 08:38:02;;;;;;;7.23;0.90;;;13.40;99.90;;;;;;5116830;27;20452;-92
2023/05/16 08:40:28;;;;;;;7.57;0.50;;;13.80;99.90;;;;;;5117632;27;20469;-91
2023/05/16 08:42:54;;;;;;;6.50;0.73;;;14.30;99.00;;;;;;5115717;27;20476;-91
2023/05/16 08:45:21;;;;;;;7.53;0.90;;;14.00;97.70;;;;;;5117993;27;20487;-93
2023/05/16 08:47:50;;;;;;;7.13;0.60;;;13.90;91.60;;;;;;5115961;27;20393;-92
2023/05/16 08:50:15;;;;;;;7.18;0.60;;;13.80;95.30;;;;;;5117661;27;20424;-92
2023/05/16 08:52:46;;;;;;;7.67;0.57;;;13.70;98.20;;;;;;5116256;27;20725;-92
2023/05/16 08:55:14;;;;;;;6.63;0.57;;;13.50;94.40;;;;;;5116602;27;20512;-92
2023/05/16 08:57:40;;;;;;;8.00;0.52;;;13.30;92.30;;;;;;5117314;27;20417;-91
2023/05/16 09:00:10;;;;;;;7.47;0.70;;;13.30;97.60;;;;;;5115878;27;20993;-91
2023/05/16 09:02:40;;;;;;;6.93;0.60;;;12.90;99.90;;;;;;5117508;27;20736;-91
2023/05/16 09:05:09;;;;;;;8.43;0.70;;;12.70;99.90;;;;;;5115689;27;20416;-91
2023/05/16 09:07:35;;;;;;;9.82;0.70;;;12.60;99.90;;;;;;5134536;27;20397;-92
2023/05/16 09:10:01;;;;;;;8.52;1.10;;;12.40;99.90;;;;;;5115674;27;20417;-91
2023/05/16 09:12:27;;;;;;;7.57;0.93;;;12.30;99.90;;;;;;5116588;27;20917;-92
2023/05/16 09:14:52;;;;;;;6.35;0.88;;;12.50;99.90;;;;;;5117061;27;20533;-91
2023/05/16 09:17:18;;;;;;;6.63;0.60;;;13.00;99.40;;;;;;5115471;27;20485;-91
2023/05/16 09:19:44;;;;;;;7.20;0.50;;;13.40;99.10;;;;;;5117425;27;20460;-91
2023/05/16 09:22:12;;;;;;;6.40;0.70;;;13.90;94.60;;;;;;5114894;27;20401;-93
2023/05/16 09:24:47;;;;;;;6.70;0.70;;;14.10;98.20;;;;;;5116879;27;20401;-92
2023/05/16 09:27:14;;;;;;;7.90;0.70;;;13.80;90.90;;;;;;5115237;27;20393;-91
2023/05/16 09:29:41;;;;;;;7.90;0.60;;;13.70;94.10;;;;;;5116371;27;20426;-93
2023/05/16 09:32:12;;;;;;;8.85;0.40;;;13.90;92.60;;;;;;5116894;27;20886;-92
2023/05/16 09:34:44;;;;;;;5.97;0.60;;;14.40;94.00;;;;;;5114903;27;20404;-91
2023/05/16 09:37:11;;;;;;;7.88;0.60;;;14.20;84.80;;;;;;5116814;27;20417;-91
2023/05/16 09:39:38;;;;;;;6.35;0.45;;;13.90;92.50;;;;;;5114325;27;20389;-92
2023/05/16 09:42:03;;;;;;;6.10;0.40;;;13.70;91.30;;;;;;5116798;27;20445;-93
2023/05/16 09:44:30;;;;;;;7.47;0.80;;;13.90;91.30;;;;;;5114712;27;20393;-90
2023/05/16 09:46:56;;;;;;;6.35;0.40;;;14.00;86.20;;;;;;5116440;27;20453;-88
2023/05/16 09:49:23;;;;;;;6.50;0.55;;;13.90;79.60;;;;;;5115767;27;20397;-92
2023/05/16 09:51:49;;;;;;;5.82;0.47;;;13.80;80.70;;;;;;5114891;27;20479;-90
2023/05/16 09:54:14;;;;;;;6.38;0.50;;;13.90;90.70;;;;;;5116677;27;20449;-92
2023/05/16 09:56:50;;;;;;;6.23;0.33;;;14.20;88.10;;;;;;5114634;27;20425;-92
2023/05/16 09:59:16;;;;;;;5.82;0.50;;;14.60;75.80;;;;;;5116279;27;20476;-92
2023/05/16 10:01:42;;;;;;;4.97;0.30;;;15.00;89.40;;;;;;5114501;27;20389;-92
2023/05/16 10:04:12;;;;;;;6.03;0.40;;;15.10;68.20;;;;;;5115932;27;20553;-91
2023/05/16 10:06:41;;;;;;;7.85;0.52;;;15.40;87.10;;;;;;5115384;27;20405;-91
2023/05/16 10:09:11;;;;;;;4.88;0.40;;;15.80;80.60;;;;;;5114515;27;20401;-92
2023/05/16 10:11:42;;;;;;;5.10;0.40;;;16.00;68.60;;;;;;5115879;27;20408;-91
2023/05/16 10:14:12;;;;;;;6.88;0.57;;;16.00;67.20;;;;;;5113841;27;20412;-91
2023/05/16 10:16:42;;;;;;;5.47;0.50;;;15.30;66.70;;;;;;5116210;27;20717;-92
2023/05/16 10:19:08;;;;;;;6.50;0.60;;;14.90;72.70;;;;;;5114165;27;20396;-92
2023/05/16 10:21:36;;;;;;;8.40;0.50;;;14.50;74.00;;;;;;5115655;27;20808;-92
2023/05/16 10:24:05;;;;;;;5.65;0.30;;;14.20;86.50;;;;;;5115130;27;20416;-91
2023/05/16 10:26:31;;;;;;;5.50;0.50;;;14.10;77.10;;;;;;5114054;27;20441;-92
2023/05/16 10:28:58;;;;;;;4.93;0.50;;;14.30;75.30;;;;;;5115215;27;20401;-92
2023/05/16 10:31:24;;;;;;;6.22;0.50;;;14.40;79.40;;;;;;5113429;27;20976;-91
2023/05/16 10:33:50;;;;;;;7.25;0.50;;;14.60;71.30;;;;;;5115503;27;20412;-92
2023/05/16 10:36:17;;;;;;;5.23;0.50;;;14.70;82.60;;;;;;5113452;27;20397;-93
2023/05/16 10:38:45;;;;;;;4.88;0.45;;;14.70;72.40;;;;;;5115234;27;20415;-92
2023/05/16 10:41:11;;;;;;;6.25;0.80;;;14.50;74.50;;;;;;5114879;27;20433;-92
2023/05/16 10:43:37;;;;;;;7.90;0.82;;;14.40;86.90;;;;;;5114379;27;20404;-92
2023/05/16 10:46:08;;;;;;;7.03;0.63;;;14.30;72.50;;;;;;5115014;27;20406;-90
2023/05/16 10:48:41;;;;;;;6.53;0.50;;;14.40;90.40;;;;;;5113723;27;20401;-92
2023/05/16 10:51:21;;;;;;;7.38;0.60;;;14.60;86.20;;;;;;5114981;27;20401;-92
2023/05/16 10:53:50;;;;;;;6.03;0.40;;;14.50;81.10;;;;;;5113946;27;20461;-90
2023/05/16 10:56:25;;;;;;;8.77;0.73;;;14.40;94.00;;;;;;5114753;27;20838;-93
2023/05/16 10:58:53;;;;;;;5.95;0.90;;;14.30;78.40;;;;;;5114743;27;20452;-92
2023/05/16 11:01:34;;;;;;;5.88;0.73;;;14.20;93.70;;;;;;5112639;27;20468;-93
2023/05/16 11:04:09;;;;;;;5.57;0.57;;;14.10;92.30;;;;;;5114944;27;20488;-91
2023/05/16 11:06:40;;;;;;;5.53;0.50;;;14.10;92.50;;;;;;5113124;27;20450;-91
2023/05/16 11:09:26;;;;;;;9.20;0.90;;;13.90;92.80;;;;;;5114899;27;20854;-90
2023/05/16 11:11:51;;;;;;;5.40;0.68;;;13.90;95.10;;;;;;5114584;27;20448;-93
2023/05/16 11:14:25;;;;;;;7.73;0.73;;;14.10;97.10;;;;;;5112732;27;20934;-92
2023/05/16 11:17:05;;;;;;;7.28;0.80;;;15.00;96.70;;;;;;5114921;27;20500;-92
2023/05/16 11:19:38;;;;;;;5.57;0.50;;;15.70;75.30;;;;;;5112314;27;20432;-91
2023/05/16 11:22:15;;;;;;;5.75;0.60;;;15.90;78.10;;;;;;5114603;27;20481;-92
2023/05/16 11:24:51;;;;;;;8.10;0.73;;;15.50;81.90;;;;;;5099882;28;20417;-90
2023/05/16 11:27:22;;;;;;;6.07;0.90;;;15.20;87.30;;;;;;5088728;28;20404;-92
2023/05/16 11:29:48;;;;;;;7.15;1.00;;;15.00;91.90;;;;;;5090729;28;20420;-89
2023/05/16 11:32:20;;;;;;;6.90;1.20;;;14.70;96.70;;;;;;5088483;28;20428;-92
2023/05/16 11:34:47;;;;;;;9.70;1.02;;;14.80;98.90;;;;;;5090643;28;20925;-91
2023/05/16 11:37:14;;;;;;;7.35;0.90;;;14.80;97.10;;;;;;5089550;28;20434;-91
2023/05/16 11:39:39;;;;;;;5.07;1.00;;;14.60;93.20;;;;;;5090087;28;20763;-91
2023/05/16 11:42:05;;;;;;;5.55;0.85;;;14.80;91.60;;;;;;5090309;28;20432;-93
2023/05/16 11:44:31;;;;;;;7.07;0.90;;;15.00;95.70;;;;;;5088440;28;20401;-92
2023/05/16 11:46:57;;;;;;;9.23;1.20;;;15.00;89.00;;;;;;5090521;28;20751;-92
2023/05/16 11:49:22;;;;;;;5.32;1.20;;;15.20;96.20;;;;;;5088561;28;20923;-91
2023/05/16 11:51:51;;;;;;;6.50;1.60;;;15.70;85.10;;;;;;5090480;28;20408;-93
2023/05/16 11:54:18;;;;;;;5.97;1.50;;;15.60;70.80;;;;;;5089051;28;20804;-92
2023/05/16 11:56:44;;;;;;;5.05;1.23;;;16.00;62.90;;;;;;5090187;28;20396;-93
2023/05/16 11:59:10;;;;;;;5.57;1.00;;;16.10;62.50;;;;;;5089562;28;20755;-91
2023/05/16 12:01:37;;;;;;;5.97;1.35;;;15.90;57.70;;;;;;5088623;28;20396;-92
2023/05/16 12:04:11;;;;;;;4.60;1.00;;;16.00;72.40;;;;;;5090698;28;20427;-92
2023/05/16 12:06:37;;;;;;;6.30;1.40;;;16.30;64.00;;;;;;5088305;28;20432;-92
2023/05/16 12:09:11;;;;;;;6.57;1.10;;;16.00;61.00;;;;;;5090789;28;20405;-92
2023/05/16 12:11:42;;;;;;;6.07;1.25;;;15.50;62.40;;;;;;5088512;28;20482;-90
2023/05/16 12:14:12;;;;;;;6.20;1.50;;;15.50;61.90;;;;;;5089893;28;20400;-92
2023/05/16 12:16:41;;;;;;;6.90;1.23;;;15.50;68.80;;;;;;5089881;28;20461;-91
2023/05/16 12:19:07;;;;;;;6.63;1.23;;;16.30;64.20;;;;;;5088029;28;20441;-91
2023/05/16 12:21:34;;;;;;;6.13;1.50;;;16.10;61.60;;;;;;5090614;28;20402;-91
2023/05/16 12:24:00;;;;;;;5.93;1.45;;;16.00;60.40;;;;;;5093215;28;20407;-92
2023/05/16 12:26:32;;;;;;;5.53;1.33;;;16.10;67.30;;;;;;5110595;28;20494;-91
2023/05/16 12:29:01;;;;;;;6.80;1.58;;;15.90;56.70;;;;;;5108971;28;20398;-92
2023/05/16 12:31:29;;;;;;;5.57;1.60;;;15.80;61.60;;;;;;5109832;28;20471;-92
2023/05/16 12:33:55;;;;;;;5.50;1.50;;;15.30;59.50;;;;;;5110035;28;20445;-92
2023/05/16 12:36:22;;;;;;;7.78;1.52;;;15.50;62.80;;;;;;5108486;28;20402;-92
2023/05/16 12:38:48;;;;;;;7.17;1.70;;;15.80;66.90;;;;;;5110654;28;20514;-92
2023/05/16 12:41:21;;;;;;;6.22;1.83;;;16.20;70.70;;;;;;5108341;28;20463;-92
2023/05/16 12:43:50;;;;;;;5.53;1.90;;;16.50;68.50;;;;;;5110321;28;20407;-92
2023/05/16 12:46:18;;;;;;;6.25;1.60;;;16.60;58.50;;;;;;5108405;28;20407;-91
2023/05/16 12:48:46;;;;;;;4.90;1.52;;;16.50;60.30;;;;;;5109776;28;20486;-92